Time;durP1;ratioP1;P1;durP2;ratioP2;P2;SDS_P1;SDS_P2;PMS_P1;PMS_P2;Temp;Humidity;BMP_temperature;BMP_pressure;BME280_temperature;BME280_humidity;BME280_pressure;Samples;Min_cycle;Max_cycle;Signal;HPM_P1;HPM_P2
2022/04/01 00:02:33;;;;;;;;;;;;;;;;;;4218703;28;2409;-61
2022/04/01 00:04:53;;;;;;;;;;;;;;;;;;4219404;28;1446;-61
2022/04/01 00:07:14;;;;;;;;;;;;;;;;;;4219542;28;934;-61
2022/04/01 00:09:37;;;;;;;;;;;;;;;;;;4219475;28;801;-62
2022/04/01 00:11:58;;;;;;;;;;;;;;;;;;4219494;28;1317;-61
2022/04/01 00:14:19;;;;;;;;;;;;;;;;;;4219532;28;821;-61
2022/04/01 00:16:39;;;;;;;;;;;;;;;;;;4219630;28;1902;-61
2022/04/01 00:19:01;;;;;;;;;;;;;;;;;;4219420;28;1004;-59
2022/04/01 00:21:21;;;;;;;;;;;;;;;;;;4219254;28;1157;-59
2022/04/01 00:23:42;;;;;;;;;;;;;;;;;;4221400;28;997;-59
2022/04/01 00:26:03;;;;;;;;;;;;;;;;;;4222166;28;1018;-59
2022/04/01 00:28:24;;;;;;;;;;;;;;;;;;4222278;28;813;-59
2022/04/01 00:30:45;;;;;;;;;;;;;;;;;;4221196;28;1186;-59
2022/04/01 00:33:05;;;;;;;;;;;;;;;;;;4222403;28;1190;-59
2022/04/01 00:35:26;;;;;;;;;;;;;;;;;;4220911;28;1975;-60
2022/04/01 00:37:47;;;;;;;;;;;;;;;;;;4222614;28;1182;-59
2022/04/01 00:40:09;;;;;;;;;;;;;;;;;;4221921;28;1065;-59
2022/04/01 00:42:30;;;;;;;;;;;;;;;;;;4221914;28;941;-61
2022/04/01 00:44:51;;;;;;;;;;;;;;;;;;4222574;28;825;-59
2022/04/01 00:47:13;;;;;;;;;;;;;;;;;;4220976;28;980;-59
2022/04/01 00:49:33;;;;;;;;;;;;;;;;;;4222047;28;937;-59
2022/04/01 00:51:54;;;;;;;;;;;;;;;;;;4221301;28;1156;-59
2022/04/01 00:54:14;;;;;;;;;;;;;;;;;;4220692;28;1359;-59
2022/04/01 00:56:34;;;;;;;;;;;;;;;;;;4221737;28;1971;-59
2022/04/01 00:58:55;;;;;;;;;;;;;;;;;;4220131;28;1090;-60
2022/04/01 01:04:07;;;;;;;;;;;;;;;;;;4204166;28;1211;-59
2022/04/01 01:06:29;;;;;;;;;;;;;;;;;;4231504;28;1023;-60
2022/04/01 01:08:49;;;;;;;;;;;;;;;;;;4203198;28;950;-60
2022/04/01 01:11:10;;;;;;;;;;;;;;;;;;4231632;28;1318;-60
2022/04/01 01:13:32;;;;;;;;;;;;;;;;;;4203086;28;1194;-60
2022/04/01 01:15:53;;;;;;;;;;;;;;;;;;4232172;28;1913;-60
2022/04/01 01:18:14;;;;;;;;;;;;;;;;;;4209219;28;1032;-60
2022/04/01 01:20:35;;;;;;;;;;;;;;;;;;4219481;28;1170;-60
2022/04/01 01:22:57;;;;;;;;;;;;;;;;;;4219603;28;1373;-60
2022/04/01 01:25:19;;;;;;;;;;;;;;;;;;4219891;28;965;-61
2022/04/01 01:27:40;;;;;;;;;;;;;;;;;;4220613;28;1086;-60
2022/04/01 01:30:02;;;;;;;;;;;;;;;;;;4219669;28;1291;-60
2022/04/01 01:32:22;;;;;;;;;;;;;;;;;;4220098;28;1178;-60
2022/04/01 01:34:43;;;;;;;;;;;;;;;;;;4219785;28;1117;-60
2022/04/01 01:37:04;;;;;;;;;;;;;;;;;;4221310;28;1901;-60
2022/04/01 01:39:25;;;;;;;;;;;;;;;;;;4220580;28;987;-59
2022/04/01 01:41:46;;;;;;;;;;;;;;;;;;4221762;28;980;-60
2022/04/01 01:44:06;;;;;;;;;;;;;;;;;;4220683;28;1039;-59
2022/04/01 01:46:27;;;;;;;;;;;;;;;;;;4220879;28;1065;-58
2022/04/01 01:48:48;;;;;;;;;;;;;;;;;;4221882;28;1156;-59
2022/04/01 01:56:25;;;;;;;;;;;;;;;;;;4207043;28;2000;-59
2022/04/01 01:58:54;;;;;;;;;;;;;;;;;;4220577;28;1135;-59
2022/04/01 02:01:15;;;;;;;;;;;;;;;;;;4221128;28;1068;-58
2022/04/01 02:03:35;;;;;;;;;;;;;;;;;;4221799;28;1220;-58
2022/04/01 02:05:57;;;;;;;;;;;;;;;;;;4221557;28;1416;-59
2022/04/01 02:08:18;;;;;;;;;;;;;;;;;;4220806;28;985;-59
2022/04/01 02:10:38;;;;;;;;;;;;;;;;;;4206769;28;1287;-59
2022/04/01 02:12:59;;;;;;;;;;;;;;;;;;4220318;28;1065;-59
2022/04/01 02:15:20;;;;;;;;;;;;;;;;;;4221711;28;942;-58
2022/04/01 02:17:41;;;;;;;;;;;;;;;;;;4221091;28;1905;-59
2022/04/01 02:20:05;;;;;;;;;;;;;;;;;;4206307;28;1235;-59
2022/04/01 02:22:26;;;;;;;;;;;;;;;;;;4221525;28;1370;-59
2022/04/01 02:24:50;;;;;;;;;;;;;;;;;;4220891;28;1279;-59
2022/04/01 02:27:11;;;;;;;;;;;;;;;;;;4220303;28;1187;-59
2022/04/01 02:29:32;;;;;;;;;;;;;;;;;;4220699;28;841;-59
2022/04/01 02:32:13;;;;;;;;;;;;;;;;;;4221715;28;952;-59
2022/04/01 02:34:55;;;;;;;;;;;;;;;;;;4220872;28;980;-58
2022/04/01 02:37:17;;;;;;;;;;;;;;;;;;4220506;28;1991;-59
2022/04/01 02:39:38;;;;;;;;;;;;;;;;;;4220597;28;1176;-59
2022/04/01 02:41:59;;;;;;;;;;;;;;;;;;4220304;28;1290;-58
2022/04/01 02:44:20;;;;;;;;;;;;;;;;;;4219501;28;1173;-60
2022/04/01 02:46:40;;;;;;;;;;;;;;;;;;4219008;28;977;-61
2022/04/01 02:49:00;;;;;;;;;;;;;;;;;;4219568;28;1252;-60
2022/04/01 02:51:30;;;;;;;;;;;;;;;;;;4218921;28;1220;-60
2022/04/01 02:53:59;;;;;;;;;;;;;;;;;;4219581;28;842;-60
2022/04/01 02:56:20;;;;;;;;;;;;;;;;;;4219543;28;1906;-60
2022/04/01 02:58:40;;;;;;;;;;;;;;;;;;4220169;28;1011;-60
2022/04/01 03:01:01;;;;;;;;;;;;;;;;;;4218976;28;946;-60
2022/04/01 03:03:22;;;;;;;;;;;;;;;;;;4219407;28;1024;-60
2022/04/01 03:05:43;;;;;;;;;;;;;;;;;;4219143;28;871;-61
2022/04/01 03:08:05;;;;;;;;;;;;;;;;;;4219374;28;952;-61
2022/04/01 03:10:26;;;;;;;;;;;;;;;;;;4218742;28;1376;-60
2022/04/01 03:12:47;;;;;;;;;;;;;;;;;;4219928;28;985;-60
2022/04/01 03:15:29;;;;;;;;;;;;;;;;;;4219149;28;1145;-60
2022/04/01 03:18:20;;;;;;;;;;;;;;;;;;4214350;28;1883;-61
2022/04/01 03:20:41;;;;;;;;;;;;;;;;;;4220071;28;1047;-60
2022/04/01 03:23:01;;;;;;;;;;;;;;;;;;4219333;28;1060;-60
2022/04/01 03:25:32;;;;;;;;;;;;;;;;;;4204507;28;1035;-60
2022/04/01 03:28:13;;;;;;;;;;;;;;;;;;4203781;28;1212;-60
2022/04/01 03:30:35;;;;;;;;;;;;;;;;;;4219148;28;933;-60
2022/04/01 03:32:55;;;;;;;;;;;;;;;;;;4218641;28;1196;-60
2022/04/01 03:35:16;;;;;;;;;;;;;;;;;;4218652;28;945;-60
2022/04/01 03:37:37;;;;;;;;;;;;;;;;;;4218929;28;1906;-60
2022/04/01 03:39:58;;;;;;;;;;;;;;;;;;4220118;28;993;-60
2022/04/01 03:42:19;;;;;;;;;;;;;;;;;;4220075;28;924;-61
2022/04/01 03:44:41;;;;;;;;;;;;;;;;;;4218871;28;1200;-60
2022/04/01 03:47:34;;;;;;;;;;;;;;;;;;4201617;28;964;-60
2022/04/01 03:49:55;;;;;;;;;;;;;;;;;;4218620;28;1020;-61
2022/04/01 03:52:17;;;;;;;;;;;;;;;;;;4218681;28;1158;-60
2022/04/01 03:54:37;;;;;;;;;;;;;;;;;;4218919;28;896;-60
2022/04/01 03:56:58;;;;;;;;;;;;;;;;;;4218237;28;1981;-60
2022/04/01 03:59:41;;;;;;;;;;;;;;;;;;4222896;28;998;-60
2022/04/01 04:02:21;;;;;;;;;;;;;;;;;;4222199;28;1169;-60
2022/04/01 04:04:41;;;;;;;;;;;;;;;;;;4221197;28;1044;-60
2022/04/01 04:07:02;;;;;;;;;;;;;;;;;;4221668;28;833;-60
2022/04/01 04:09:23;;;;;;;;;;;;;;;;;;4221579;28;996;-60
2022/04/01 04:11:44;;;;;;;;;;;;;;;;;;4222784;28;1020;-61
2022/04/01 04:14:16;;;;;;;;;;;;;;;;;;4221556;28;1055;-60
2022/04/01 04:16:37;;;;;;;;;;;;;;;;;;4221394;28;839;-60
2022/04/01 04:18:58;;;;;;;;;;;;;;;;;;4206813;28;973;-60
2022/04/01 04:21:24;;;;;;;;;;;;;;;;;;4221269;28;982;-60
2022/04/01 04:23:45;;;;;;;;;;;;;;;;;;4221101;28;991;-60
2022/04/01 04:26:11;;;;;;;;;;;;;;;;;;4221168;28;965;-60
2022/04/01 04:28:32;;;;;;;;;;;;;;;;;;4221117;28;947;-60
2022/04/01 04:31:13;;;;;;;;;;;;;;;;;;4222246;28;956;-60
2022/04/01 04:33:44;;;;;;;;;;;;;;;;;;4221001;28;1053;-60
2022/04/01 04:36:05;;;;;;;;;;;;;;;;;;4221137;28;935;-59
2022/04/01 04:38:33;;;;;;;;;;;;;;;;;;4220972;28;1909;-60
2022/04/01 04:40:54;;;;;;;;;;;;;;;;;;4221895;28;981;-60
2022/04/01 04:43:18;;;;;;;;;;;;;;;;;;4221102;28;1066;-60
2022/04/01 04:45:40;;;;;;;;;;;;;;;;;;4221013;28;803;-60
2022/04/01 04:48:00;;;;;;;;;;;;;;;;;;4220951;28;962;-60
2022/04/01 04:50:21;;;;;;;;;;;;;;;;;;4206117;28;1372;-61
2022/04/01 04:52:42;;;;;;;;;;;;;;;;;;4221160;28;923;-60
2022/04/01 04:55:02;;;;;;;;;;;;;;;;;;4221760;28;1214;-60
2022/04/01 04:57:30;;;;;;;;;;;;;;;;;;4220658;28;1915;-60
2022/04/01 04:59:51;;;;;;;;;;;;;;;;;;4221083;28;845;-60
2022/04/01 05:02:16;;;;;;;;;;;;;;;;;;4221083;28;1262;-60
2022/04/01 05:04:39;;;;;;;;;;;;;;;;;;4206267;28;974;-60
2022/04/01 05:07:00;;;;;;;;;;;;;;;;;;4220646;28;1413;-62
2022/04/01 05:09:51;;;;;;;;;;;;;;;;;;4217407;28;1182;-60
2022/04/01 05:12:12;;;;;;;;;;;;;;;;;;4220577;28;1307;-60
2022/04/01 05:15:08;;;;;;;;;;;;;;;;;;4203435;28;991;-60
2022/04/01 05:17:29;;;;;;;;;;;;;;;;;;4220278;28;1990;-60
2022/04/01 05:19:50;;;;;;;;;;;;;;;;;;4220160;28;1026;-60
2022/04/01 05:22:13;;;;;;;;;;;;;;;;;;4220224;28;981;-60
2022/04/01 05:24:50;;;;;;;;;;;;;;;;;;4220279;28;1145;-60
2022/04/01 05:27:11;;;;;;;;;;;;;;;;;;4205587;28;1030;-60
2022/04/01 05:30:04;;;;;;;;;;;;;;;;;;4186848;28;1033;-60
2022/04/01 05:32:24;;;;;;;;;;;;;;;;;;4205869;28;998;-60
2022/04/01 05:34:45;;;;;;;;;;;;;;;;;;4219210;28;1732;-60
2022/04/01 05:37:06;;;;;;;;;;;;;;;;;;4219375;28;1559;-60
2022/04/01 05:39:29;;;;;;;;;;;;;;;;;;4220511;28;853;-59
2022/04/01 05:41:54;;;;;;;;;;;;;;;;;;4219938;28;1366;-60
2022/04/01 05:44:15;;;;;;;;;;;;;;;;;;4205804;28;1155;-60
2022/04/01 05:46:39;;;;;;;;;;;;;;;;;;4220034;28;1166;-60
2022/04/01 05:48:59;;;;;;;;;;;;;;;;;;4220217;28;1118;-60
2022/04/01 05:51:20;;;;;;;;;;;;;;;;;;4226328;28;1482;-60
2022/04/01 05:53:43;;;;;;;;;;;;;;;;;;4237079;28;958;-60
2022/04/01 05:56:03;;;;;;;;;;;;;;;;;;4237963;27;1397;-60
2022/04/01 05:58:26;;;;;;;;;;;;;;;;;;4237233;28;2384;-60
2022/04/01 06:00:47;;;;;;;;;;;;;;;;;;4236731;28;1116;-60
2022/04/01 06:03:09;;;;;;;;;;;;;;;;;;4236643;28;968;-60
2022/04/01 06:05:30;;;;;;;;;;;;;;;;;;4238663;28;781;-60
2022/04/01 06:07:51;;;;;;;;;;;;;;;;;;4236538;28;989;-60
2022/04/01 06:10:11;;;;;;;;;;;;;;;;;;4237923;27;1098;-60
2022/04/01 06:13:10;;;;;;;;;;;;;;;;;;4237732;28;1093;-60
2022/04/01 06:16:06;;;;;;;;;;;;;;;;;;4237863;27;937;-60
2022/04/01 06:18:45;;;;;;;;;;;;;;;;;;4237711;27;1980;-59
2022/04/01 06:21:06;;;;;;;;;;;;;;;;;;4235471;28;1163;-60
2022/04/01 06:23:27;;;;;;;;;;;;;;;;;;4236445;28;1026;-59
2022/04/01 06:25:48;;;;;;;;;;;;;;;;;;4236805;28;993;-60
2022/04/01 06:28:09;;;;;;;;;;;;;;;;;;4237482;27;982;-60
2022/04/01 06:30:29;;;;;;;;;;;;;;;;;;4236974;28;893;-60
2022/04/01 06:33:02;;;;;;;;;;;;;;;;;;4236282;28;1269;-60
2022/04/01 06:35:52;;;;;;;;;;;;;;;;;;4204928;28;970;-59
2022/04/01 06:38:18;;;;;;;;;;;;;;;;;;4236477;28;1934;-60
2022/04/01 06:40:39;;;;;;;;;;;;;;;;;;4237330;27;993;-59
2022/04/01 06:43:00;;;;;;;;;;;;;;;;;;4236545;28;1231;-60
2022/04/01 06:45:29;;;;;;;;;;;;;;;;;;4237105;27;1455;-59
2022/04/01 06:48:13;;;;;;;;;;;;;;;;;;4236003;27;1154;-59
2022/04/01 06:50:53;;;;;;;;;;;;;;;;;;4220091;27;1275;-61
2022/04/01 06:53:49;;;;;;;;;;;;;;;;;;4167958;28;966;-60
2022/04/01 06:56:30;;;;;;;;;;;;;;;;;;4195477;28;1124;-59
2022/04/01 06:58:50;;;;;;;;;;;;;;;;;;4218481;28;1902;-60
2022/04/01 07:01:12;;;;;;;;;;;;;;;;;;4219699;28;1096;-61
2022/04/01 07:03:33;;;;;;;;;;;;;;;;;;4219551;28;997;-59
2022/04/01 07:05:54;;;;;;;;;;;;;;;;;;4218047;28;2477;-60
2022/04/01 07:08:16;;;;;;;;;;;;;;;;;;4206618;28;1767;-60
2022/04/01 07:10:38;;;;;;;;;;;;;;;;;;4202888;28;914;-59
2022/04/01 07:12:59;;;;;;;;;;;;;;;;;;4212216;28;1594;-60
2022/04/01 07:15:19;;;;;;;;;;;;;;;;;;4219360;28;1102;-60
2022/04/01 07:17:40;;;;;;;;;;;;;;;;;;4203067;28;922;-60
2022/04/01 07:20:01;;;;;;;;;;;;;;;;;;4210173;28;1092;-60
2022/04/01 07:22:22;;;;;;;;;;;;;;;;;;4220174;28;1257;-60
2022/04/01 07:24:43;;;;;;;;;;;;;;;;;;4220008;28;1412;-60
2022/04/01 07:27:03;;;;;;;;;;;;;;;;;;4219669;28;929;-60
2022/04/01 07:29:24;;;;;;;;;;;;;;;;;;4219753;28;864;-60
2022/04/01 07:34:23;;;;;;;;;;;;;;;;;;4222266;28;1100;-60
2022/04/01 07:36:44;;;;;;;;;;;;;;;;;;4222369;28;1030;-60
2022/04/01 07:39:05;;;;;;;;;;;;;;;;;;4221159;28;1913;-60
2022/04/01 07:41:27;;;;;;;;;;;;;;;;;;4221967;28;1285;-60
2022/04/01 07:43:47;;;;;;;;;;;;;;;;;;4222585;28;942;-60
2022/04/01 07:46:10;;;;;;;;;;;;;;;;;;4222741;28;950;-60
2022/04/01 07:48:30;;;;;;;;;;;;;;;;;;4222621;28;825;-61
2022/04/01 07:50:51;;;;;;;;;;;;;;;;;;4220570;28;1365;-60
2022/04/01 07:53:12;;;;;;;;;;;;;;;;;;4222544;28;1102;-60
2022/04/01 07:55:33;;;;;;;;;;;;;;;;;;4221703;28;1243;-60
2022/04/01 07:57:56;;;;;;;;;;;;;;;;;;4222011;28;1087;-60
2022/04/01 08:00:17;;;;;;;;;;;;;;;;;;4222284;28;1019;-60
2022/04/01 08:02:37;;;;;;;;;;;;;;;;;;4205011;28;993;-60
2022/04/01 08:04:58;;;;;;;;;;;;;;;;;;4211660;28;1210;-59
2022/04/01 08:07:19;;;;;;;;;;;;;;;;;;4222151;28;831;-60
2022/04/01 08:09:39;;;;;;;;;;;;;;;;;;4221796;28;944;-60
2022/04/01 08:12:00;;;;;;;;;;;;;;;;;;4221336;28;1110;-62
2022/04/01 08:14:21;;;;;;;;;;;;;;;;;;4221606;28;1224;-60
2022/04/01 08:16:42;;;;;;;;;;;;;;;;;;4222446;28;927;-60
2022/04/01 08:19:03;;;;;;;;;;;;;;;;;;4221310;28;1954;-59
2022/04/01 08:21:24;;;;;;;;;;;;;;;;;;4212462;28;1471;-60
2022/04/01 08:23:44;;;;;;;;;;;;;;;;;;4222024;28;1288;-59
2022/04/01 08:26:05;;;;;;;;;;;;;;;;;;4220158;28;3092;-60
2022/04/01 08:28:26;;;;;;;;;;;;;;;;;;4217102;28;1100;-59
2022/04/01 08:30:46;;;;;;;;;;;;;;;;;;4205905;28;1547;-59
2022/04/01 08:33:07;;;;;;;;;;;;;;;;;;4221529;28;1452;-59
2022/04/01 08:35:29;;;;;;;;;;;;;;;;;;4220382;28;1260;-59
2022/04/01 08:37:49;;;;;;;;;;;;;;;;;;4220302;28;967;-60
2022/04/01 08:40:10;;;;;;;;;;;;;;;;;;4221771;28;1988;-62
2022/04/01 08:42:32;;;;;;;;;;;;;;;;;;4219923;28;1861;-59
2022/04/01 08:44:53;;;;;;;;;;;;;;;;;;4212316;28;981;-59
2022/04/01 08:47:13;;;;;;;;;;;;;;;;;;4221640;28;1286;-63
2022/04/01 08:49:34;;;;;;;;;;;;;;;;;;4221379;28;1086;-61
2022/04/01 08:51:56;;;;;;;;;;;;;;;;;;4221495;28;965;-59
2022/04/01 08:54:17;;;;;;;;;;;;;;;;;;4204644;28;2666;-61
2022/04/01 08:56:38;;;;;;;;;;;;;;;;;;4203747;28;840;-60
2022/04/01 08:58:58;;;;;;;;;;;;;;;;;;4204578;28;1910;-60
2022/04/01 09:01:19;;;;;;;;;;;;;;;;;;4210354;28;1423;-59
2022/04/01 09:03:40;;;;;;;;;;;;;;;;;;4208133;28;2536;-60
2022/04/01 09:06:02;;;;;;;;;;;;;;;;;;4220058;28;1507;-61
2022/04/01 09:08:22;;;;;;;;;;;;;;;;;;4212941;28;941;-60
2022/04/01 09:10:43;;;;;;;;;;;;;;;;;;4221334;28;1124;-60
2022/04/01 09:13:04;;;;;;;;;;;;;;;;;;4220406;28;1006;-60
2022/04/01 09:15:25;;;;;;;;;;;;;;;;;;4221010;28;976;-60
2022/04/01 09:17:46;;;;;;;;;;;;;;;;;;4210892;28;2632;-61
2022/04/01 09:20:07;;;;;;;;;;;;;;;;;;4215764;28;1979;-58
2022/04/01 09:22:28;;;;;;;;;;;;;;;;;;4220970;28;1162;-58
2022/04/01 09:24:49;;;;;;;;;;;;;;;;;;4221111;28;891;-58
2022/04/01 09:27:09;;;;;;;;;;;;;;;;;;4220517;28;1333;-57
2022/04/01 09:29:31;;;;;;;;;;;;;;;;;;4209005;28;1880;-57
2022/04/01 09:31:52;;;;;;;;;;;;;;;;;;4204586;28;1053;-57
2022/04/01 09:34:14;;;;;;;;;;;;;;;;;;4225096;28;1083;-58
2022/04/01 09:36:37;;;;;;;;;;;;;;;;;;4218175;28;1561;-58
2022/04/01 09:38:58;;;;;;;;;;;;;;;;;;4209326;28;1949;-58
2022/04/01 09:41:19;;;;;;;;;;;;;;;;;;4209127;28;825;-59
2022/04/01 09:43:39;;;;;;;;;;;;;;;;;;4211363;28;1134;-58
2022/04/01 09:46:00;;;;;;;;;;;;;;;;;;4219919;28;1155;-59
2022/04/01 09:48:21;;;;;;;;;;;;;;;;;;4220557;28;1014;-58
2022/04/01 09:50:42;;;;;;;;;;;;;;;;;;4220216;28;1077;-59
2022/04/01 09:53:03;;;;;;;;;;;;;;;;;;4206206;28;2021;-58
2022/04/01 09:55:23;;;;;;;;;;;;;;;;;;4201680;28;982;-58
2022/04/01 09:57:44;;;;;;;;;;;;;;;;;;4211164;28;1937;-57
2022/04/01 10:00:05;;;;;;;;;;;;;;;;;;4220141;28;1913;-58
2022/04/01 10:02:33;;;;;;;;;;;;;;;;;;4214994;28;2370;-58
2022/04/01 10:04:54;;;;;;;;;;;;;;;;;;4211042;28;1025;-57
2022/04/01 10:07:16;;;;;;;;;;;;;;;;;;4220769;28;930;-58
2022/04/01 10:09:37;;;;;;;;;;;;;;;;;;4219736;28;1498;-58
2022/04/01 10:11:57;;;;;;;;;;;;;;;;;;4218633;28;1043;-58
2022/04/01 10:14:18;;;;;;;;;;;;;;;;;;4219818;28;929;-57
2022/04/01 10:16:41;;;;;;;;;;;;;;;;;;4220572;28;1250;-58
2022/04/01 10:19:01;;;;;;;;;;;;;;;;;;4220026;28;1051;-58
2022/04/01 10:21:22;;;;;;;;;;;;;;;;;;4202796;28;954;-59
2022/04/01 10:23:43;;;;;;;;;;;;;;;;;;4203777;28;978;-58
2022/04/01 10:26:04;;;;;;;;;;;;;;;;;;4203657;28;1208;-58
2022/04/01 10:28:25;;;;;;;;;;;;;;;;;;4204060;28;1093;-58
2022/04/01 10:30:46;;;;;;;;;;;;;;;;;;4203354;28;1137;-57
2022/04/01 10:33:07;;;;;;;;;;;;;;;;;;4201362;28;2624;-58
2022/04/01 10:35:28;;;;;;;;;;;;;;;;;;4211503;28;2691;-58
2022/04/01 10:37:48;;;;;;;;;;;;;;;;;;4212400;28;1923;-58
2022/04/01 10:40:09;;;;;;;;;;;;;;;;;;4203859;28;2083;-58
2022/04/01 10:42:29;;;;;;;;;;;;;;;;;;4207243;28;1753;-58
2022/04/01 10:44:50;;;;;;;;;;;;;;;;;;4200413;28;2581;-58
2022/04/01 10:47:11;;;;;;;;;;;;;;;;;;4207105;28;1920;-58
2022/04/01 10:52:10;;;;;;;;;;;;;;;;;;4206763;28;1768;-58
2022/04/01 10:54:30;;;;;;;;;;;;;;;;;;4215597;28;2023;-58
2022/04/01 10:56:51;;;;;;;;;;;;;;;;;;4210614;28;1968;-58
2022/04/01 10:59:12;;;;;;;;;;;;;;;;;;4211691;28;2123;-58
2022/04/01 11:01:34;;;;;;;;;;;;;;;;;;4202076;28;2440;-58
2022/04/01 11:03:54;;;;;;;;;;;;;;;;;;4203504;28;2589;-58
2022/04/01 11:06:15;;;;;;;;;;;;;;;;;;4208349;28;1900;-58
2022/04/01 11:08:38;;;;;;;;;;;;;;;;;;4200463;28;2531;-58
2022/04/01 11:10:59;;;;;;;;;;;;;;;;;;4198157;28;2624;-58
2022/04/01 11:13:19;;;;;;;;;;;;;;;;;;4211385;28;1981;-58
2022/04/01 11:15:40;;;;;;;;;;;;;;;;;;4214855;28;1903;-58
2022/04/01 11:18:01;;;;;;;;;;;;;;;;;;4206161;28;1940;-57
2022/04/01 11:20:22;;;;;;;;;;;;;;;;;;4206125;28;2063;-58
2022/04/01 11:22:44;;;;;;;;;;;;;;;;;;4204209;28;1871;-60
2022/04/01 11:25:04;;;;;;;;;;;;;;;;;;4195523;28;2381;-57
2022/04/01 11:27:26;;;;;;;;;;;;;;;;;;4203822;28;2097;-58
2022/04/01 11:29:46;;;;;;;;;;;;;;;;;;4205454;28;2330;-58
2022/04/01 11:32:08;;;;;;;;;;;;;;;;;;4203525;28;2961;-58
2022/04/01 11:34:29;;;;;;;;;;;;;;;;;;4211840;28;2339;-59
2022/04/01 11:36:49;;;;;;;;;;;;;;;;;;4207473;28;1186;-58
2022/04/01 11:39:10;;;;;;;;;;;;;;;;;;4208711;28;2417;-57
2022/04/01 11:41:31;;;;;;;;;;;;;;;;;;4206529;28;2245;-58
2022/04/01 11:43:52;;;;;;;;;;;;;;;;;;4212372;28;2355;-58
2022/04/01 11:46:14;;;;;;;;;;;;;;;;;;4218638;28;1069;-58
2022/04/01 11:48:35;;;;;;;;;;;;;;;;;;4218357;28;940;-58
2022/04/01 11:50:56;;;;;;;;;;;;;;;;;;4217874;28;1138;-58
2022/04/01 11:53:17;;;;;;;;;;;;;;;;;;4219012;28;954;-58
2022/04/01 11:55:38;;;;;;;;;;;;;;;;;;4219398;28;1005;-58
2022/04/01 11:57:59;;;;;;;;;;;;;;;;;;4218236;28;1093;-58
2022/04/01 12:00:19;;;;;;;;;;;;;;;;;;4218433;28;1910;-58
2022/04/01 12:02:40;;;;;;;;;;;;;;;;;;4218175;28;1012;-60
2022/04/01 12:05:01;;;;;;;;;;;;;;;;;;4218431;28;1444;-58
2022/04/01 12:10:01;;;;;;;;;;;;;;;;;;4219683;28;891;-57
2022/04/01 12:12:21;;;;;;;;;;;;;;;;;;4218971;28;1052;-58
2022/04/01 12:14:42;;;;;;;;;;;;;;;;;;4216682;28;1290;-57
2022/04/01 12:17:03;;;;;;;;;;;;;;;;;;4217898;28;1008;-58
2022/04/01 12:19:26;;;;;;;;;;;;;;;;;;4219533;28;1248;-57
2022/04/01 12:21:47;;;;;;;;;;;;;;;;;;4220814;28;1996;-57
2022/04/01 12:24:07;;;;;;;;;;;;;;;;;;4220105;28;1485;-56
2022/04/01 12:26:28;;;;;;;;;;;;;;;;;;4220414;28;1164;-56
2022/04/01 12:28:49;;;;;;;;;;;;;;;;;;4220385;28;965;-57
2022/04/01 12:31:09;;;;;;;;;;;;;;;;;;4220482;28;1495;-58
2022/04/01 12:33:30;;;;;;;;;;;;;;;;;;4220679;28;992;-57
2022/04/01 12:35:50;;;;;;;;;;;;;;;;;;4220050;28;1293;-58
2022/04/01 12:38:11;;;;;;;;;;;;;;;;;;4220646;28;1001;-58
2022/04/01 12:40:32;;;;;;;;;;;;;;;;;;4220148;28;1901;-57
2022/04/01 12:42:53;;;;;;;;;;;;;;;;;;4219909;28;1248;-58
2022/04/01 12:45:14;;;;;;;;;;;;;;;;;;4218825;28;1478;-58
2022/04/01 12:47:35;;;;;;;;;;;;;;;;;;4220287;28;1238;-57
2022/04/01 12:49:55;;;;;;;;;;;;;;;;;;4219683;28;1363;-56
2022/04/01 12:52:16;;;;;;;;;;;;;;;;;;4220209;28;1078;-59
2022/04/01 12:54:38;;;;;;;;;;;;;;;;;;4220280;28;1022;-58
2022/04/01 12:56:58;;;;;;;;;;;;;;;;;;4220436;28;1032;-57
2022/04/01 12:59:20;;;;;;;;;;;;;;;;;;4220237;28;1228;-56
2022/04/01 13:01:41;;;;;;;;;;;;;;;;;;4220162;28;1910;-58
2022/04/01 13:04:02;;;;;;;;;;;;;;;;;;4219386;28;960;-58
2022/04/01 13:06:25;;;;;;;;;;;;;;;;;;4203014;28;1194;-56
2022/04/01 13:08:46;;;;;;;;;;;;;;;;;;4203694;28;968;-57
2022/04/01 13:11:06;;;;;;;;;;;;;;;;;;4203371;28;1023;-57
2022/04/01 13:13:27;;;;;;;;;;;;;;;;;;4203325;28;1028;-58
2022/04/01 13:15:48;;;;;;;;;;;;;;;;;;4209804;28;1091;-58
2022/04/01 13:18:09;;;;;;;;;;;;;;;;;;4220110;28;1188;-57
2022/04/01 13:20:29;;;;;;;;;;;;;;;;;;4219708;28;1955;-58
2022/04/01 13:22:50;;;;;;;;;;;;;;;;;;4219688;28;901;-57
2022/04/01 13:25:12;;;;;;;;;;;;;;;;;;4219841;28;1049;-58
2022/04/01 13:27:33;;;;;;;;;;;;;;;;;;4220024;28;837;-57
2022/04/01 13:29:54;;;;;;;;;;;;;;;;;;4219740;28;917;-57
2022/04/01 13:32:15;;;;;;;;;;;;;;;;;;4219677;28;1149;-57
2022/04/01 13:34:37;;;;;;;;;;;;;;;;;;4219600;28;1225;-58
2022/04/01 13:36:58;;;;;;;;;;;;;;;;;;4205412;28;1220;-57
2022/04/01 13:39:18;;;;;;;;;;;;;;;;;;4206048;28;1355;-58
2022/04/01 13:41:39;;;;;;;;;;;;;;;;;;4203140;28;1909;-58
2022/04/01 13:44:00;;;;;;;;;;;;;;;;;;4203639;28;1018;-58
2022/04/01 13:46:20;;;;;;;;;;;;;;;;;;4209963;28;2755;-58
2022/04/01 13:48:41;;;;;;;;;;;;;;;;;;4210343;28;1547;-58
2022/04/01 13:51:03;;;;;;;;;;;;;;;;;;4218388;28;1207;-58
2022/04/01 13:53:23;;;;;;;;;;;;;;;;;;4218210;28;1856;-57
2022/04/01 13:55:44;;;;;;;;;;;;;;;;;;4219472;28;958;-57
2022/04/01 13:58:05;;;;;;;;;;;;;;;;;;4219456;28;1125;-57
2022/04/01 14:00:26;;;;;;;;;;;;;;;;;;4219166;28;950;-58
2022/04/01 14:02:47;;;;;;;;;;;;;;;;;;4202068;28;1014;-57
2022/04/01 14:05:08;;;;;;;;;;;;;;;;;;4210136;28;1444;-59
2022/04/01 14:07:28;;;;;;;;;;;;;;;;;;4218673;28;946;-58
2022/04/01 14:09:49;;;;;;;;;;;;;;;;;;4218710;28;1270;-57
2022/04/01 14:12:10;;;;;;;;;;;;;;;;;;4218686;28;1075;-58
2022/04/01 14:14:30;;;;;;;;;;;;;;;;;;4218912;28;1067;-59
2022/04/01 14:16:51;;;;;;;;;;;;;;;;;;4218923;28;981;-57
2022/04/01 14:19:12;;;;;;;;;;;;;;;;;;4218883;28;1322;-58
2022/04/01 14:21:33;;;;;;;;;;;;;;;;;;4218697;28;1910;-58
2022/04/01 14:23:53;;;;;;;;;;;;;;;;;;4219229;28;1028;-57
2022/04/01 14:26:14;;;;;;;;;;;;;;;;;;4218774;28;1086;-57
2022/04/01 14:28:35;;;;;;;;;;;;;;;;;;4218503;28;1015;-58
2022/04/01 14:30:56;;;;;;;;;;;;;;;;;;4219581;28;1014;-58
2022/04/01 14:33:17;;;;;;;;;;;;;;;;;;4218630;28;955;-58
2022/04/01 14:35:38;;;;;;;;;;;;;;;;;;4218400;28;1110;-58
2022/04/01 14:37:59;;;;;;;;;;;;;;;;;;4218775;28;961;-58
2022/04/01 14:40:19;;;;;;;;;;;;;;;;;;4218507;28;1218;-58
2022/04/01 14:42:40;;;;;;;;;;;;;;;;;;4218788;28;1990;-58
2022/04/01 14:45:01;;;;;;;;;;;;;;;;;;4219112;28;929;-57
2022/04/01 14:47:24;;;;;;;;;;;;;;;;;;4218868;28;1013;-58
2022/04/01 14:49:44;;;;;;;;;;;;;;;;;;4218116;28;1365;-58
2022/04/01 14:52:05;;;;;;;;;;;;;;;;;;4218073;28;1056;-57
2022/04/01 14:54:26;;;;;;;;;;;;;;;;;;4218622;28;1089;-58
2022/04/01 14:56:47;;;;;;;;;;;;;;;;;;4218667;28;1184;-57
2022/04/01 14:59:08;;;;;;;;;;;;;;;;;;4218741;28;1343;-57
2022/04/01 15:01:29;;;;;;;;;;;;;;;;;;4209554;28;1913;-59
2022/04/01 15:03:50;;;;;;;;;;;;;;;;;;4219104;28;846;-59
2022/04/01 15:06:11;;;;;;;;;;;;;;;;;;4203689;28;842;-57
2022/04/01 15:08:32;;;;;;;;;;;;;;;;;;4207943;28;1373;-57
2022/04/01 15:10:52;;;;;;;;;;;;;;;;;;4220013;28;1456;-57
2022/04/01 15:13:14;;;;;;;;;;;;;;;;;;4214411;28;3298;-58
2022/04/01 15:15:34;;;;;;;;;;;;;;;;;;4212939;28;868;-57
2022/04/01 15:17:55;;;;;;;;;;;;;;;;;;4219960;28;1040;-58
2022/04/01 15:20:16;;;;;;;;;;;;;;;;;;4219311;28;1114;-58
2022/04/01 15:22:37;;;;;;;;;;;;;;;;;;4218940;28;1914;-57
2022/04/01 15:24:57;;;;;;;;;;;;;;;;;;4217726;28;925;-58
2022/04/01 15:27:18;;;;;;;;;;;;;;;;;;4215274;28;1649;-57
2022/04/01 15:29:39;;;;;;;;;;;;;;;;;;4211857;28;960;-57
2022/04/01 15:32:00;;;;;;;;;;;;;;;;;;4203516;28;933;-57
2022/04/01 15:34:21;;;;;;;;;;;;;;;;;;4203535;28;1090;-58
2022/04/01 15:36:42;;;;;;;;;;;;;;;;;;4217996;28;1170;-57
2022/04/01 15:39:04;;;;;;;;;;;;;;;;;;4211255;28;2561;-58
2022/04/01 15:41:25;;;;;;;;;;;;;;;;;;4201129;28;1905;-57
2022/04/01 15:43:46;;;;;;;;;;;;;;;;;;4201712;28;904;-57
2022/04/01 15:46:06;;;;;;;;;;;;;;;;;;4202018;28;1105;-57
2022/04/01 15:48:27;;;;;;;;;;;;;;;;;;4212074;28;1592;-57
2022/04/01 15:50:48;;;;;;;;;;;;;;;;;;4213536;28;1365;-58
2022/04/01 15:53:08;;;;;;;;;;;;;;;;;;4220109;28;919;-57
2022/04/01 15:55:29;;;;;;;;;;;;;;;;;;4221498;28;872;-57
2022/04/01 15:57:50;;;;;;;;;;;;;;;;;;4220522;28;2207;-57
2022/04/01 16:00:11;;;;;;;;;;;;;;;;;;4221859;28;976;-57
2022/04/01 16:02:34;;;;;;;;;;;;;;;;;;4208842;28;2011;-57
2022/04/01 16:04:55;;;;;;;;;;;;;;;;;;4210929;28;1444;-57
2022/04/01 16:07:16;;;;;;;;;;;;;;;;;;4218906;28;1114;-53
2022/04/01 16:09:37;;;;;;;;;;;;;;;;;;4220226;28;1067;-52
2022/04/01 16:11:58;;;;;;;;;;;;;;;;;;4217311;28;1229;-52
2022/04/01 16:14:19;;;;;;;;;;;;;;;;;;4220594;28;1127;-52
2022/04/01 16:16:40;;;;;;;;;;;;;;;;;;4220416;28;970;-53
2022/04/01 16:19:01;;;;;;;;;;;;;;;;;;4220675;28;998;-52
2022/04/01 16:21:21;;;;;;;;;;;;;;;;;;4220794;28;924;-53
2022/04/01 16:23:42;;;;;;;;;;;;;;;;;;4220543;28;1010;-53
2022/04/01 16:26:03;;;;;;;;;;;;;;;;;;4220562;28;910;-52
2022/04/01 16:28:24;;;;;;;;;;;;;;;;;;4220810;28;1064;-52
2022/04/01 16:30:45;;;;;;;;;;;;;;;;;;4219934;28;946;-52
2022/04/01 16:33:06;;;;;;;;;;;;;;;;;;4220413;28;1188;-52
2022/04/01 16:35:27;;;;;;;;;;;;;;;;;;4218555;28;1353;-52
2022/04/01 16:37:48;;;;;;;;;;;;;;;;;;4220471;28;904;-53
2022/04/01 16:40:08;;;;;;;;;;;;;;;;;;4220584;28;821;-53
2022/04/01 16:42:29;;;;;;;;;;;;;;;;;;4220139;28;1910;-52
2022/04/01 16:44:51;;;;;;;;;;;;;;;;;;4203951;28;881;-52
2022/04/01 16:47:12;;;;;;;;;;;;;;;;;;4203759;28;1047;-60
2022/04/01 16:49:33;;;;;;;;;;;;;;;;;;4206602;28;1128;-58
2022/04/01 16:51:54;;;;;;;;;;;;;;;;;;4217792;28;1633;-59